sensor_id;sensor_type;location;lat;lon;timestamp;temperature;humidity
62339;DHT22;48368;53.406;6.214;2022-12-18T00:01:47;-3.00;99.90
62339;DHT22;48368;53.406;6.214;2022-12-18T00:04:24;-3.00;99.90
62339;DHT22;48368;53.406;6.214;2022-12-18T00:06:50;-3.10;99.90
62339;DHT22;48368;53.406;6.214;2022-12-18T00:09:16;-3.10;99.90
62339;DHT22;48368;53.406;6.214;2022-12-18T00:11:42;-3.10;99.90
62339;DHT22;48368;53.406;6.214;2022-12-18T00:14:09;-3.10;99.90
62339;DHT22;48368;53.406;6.214;2022-12-18T00:16:36;-3.00;99.90
62339;DHT22;48368;53.406;6.214;2022-12-18T00:19:03;-3.00;99.90
62339;DHT22;48368;53.406;6.214;2022-12-18T00:21:30;-3.10;99.90
62339;DHT22;48368;53.406;6.214;2022-12-18T00:23:57;-3.10;99.90
62339;DHT22;48368;53.406;6.214;2022-12-18T00:26:25;-3.00;99.90
62339;DHT22;48368;53.406;6.214;2022-12-18T00:28:52;-3.00;99.90
62339;DHT22;48368;53.406;6.214;2022-12-18T00:31:20;-3.10;99.90
62339;DHT22;48368;53.406;6.214;2022-12-18T00:33:47;-3.10;99.90
62339;DHT22;48368;53.406;6.214;2022-12-18T00:36:16;-3.00;99.90
62339;DHT22;48368;53.406;6.214;2022-12-18T00:38:43;-3.00;99.90
62339;DHT22;48368;53.406;6.214;2022-12-18T00:41:10;-3.00;99.90
62339;DHT22;48368;53.406;6.214;2022-12-18T00:43:37;-3.10;99.90
62339;DHT22;48368;53.406;6.214;2022-12-18T00:46:03;-3.20;99.90
62339;DHT22;48368;53.406;6.214;2022-12-18T00:48:29;-3.10;99.90
62339;DHT22;48368;53.406;6.214;2022-12-18T00:50:55;-3.10;99.90
62339;DHT22;48368;53.406;6.214;2022-12-18T00:53:21;-3.20;99.90
62339;DHT22;48368;53.406;6.214;2022-12-18T00:55:47;-3.20;99.90
62339;DHT22;48368;53.406;6.214;2022-12-18T00:58:14;-3.10;99.90
62339;DHT22;48368;53.406;6.214;2022-12-18T01:00:40;-3.00;99.90
62339;DHT22;48368;53.406;6.214;2022-12-18T01:03:07;-3.20;99.90
62339;DHT22;48368;53.406;6.214;2022-12-18T01:05:32;-3.10;99.90
62339;DHT22;48368;53.406;6.214;2022-12-18T01:07:58;-3.10;99.90
62339;DHT22;48368;53.406;6.214;2022-12-18T01:10:25;-3.10;99.90
62339;DHT22;48368;53.406;6.214;2022-12-18T01:12:51;-3.10;99.90
62339;DHT22;48368;53.406;6.214;2022-12-18T01:15:17;-3.10;99.90
62339;DHT22;48368;53.406;6.214;2022-12-18T01:17:43;-3.10;99.90
62339;DHT22;48368;53.406;6.214;2022-12-18T01:20:10;-3.20;99.90
62339;DHT22;48368;53.406;6.214;2022-12-18T01:22:36;-3.30;99.90
62339;DHT22;48368;53.406;6.214;2022-12-18T01:25:03;-3.30;99.90
62339;DHT22;48368;53.406;6.214;2022-12-18T01:27:29;-3.30;99.90
62339;DHT22;48368;53.406;6.214;2022-12-18T01:29:55;-3.20;99.90
62339;DHT22;48368;53.406;6.214;2022-12-18T01:32:20;-3.20;99.90
62339;DHT22;48368;53.406;6.214;2022-12-18T01:34:47;-3.30;99.90
62339;DHT22;48368;53.406;6.214;2022-12-18T01:37:13;-3.20;99.90
62339;DHT22;48368;53.406;6.214;2022-12-18T01:39:38;-3.30;99.90
62339;DHT22;48368;53.406;6.214;2022-12-18T01:42:12;-3.20;99.90
62339;DHT22;48368;53.406;6.214;2022-12-18T01:47:47;-3.20;99.90
62339;DHT22;48368;53.406;6.214;2022-12-18T01:50:18;-3.20;99.90
62339;DHT22;48368;53.406;6.214;2022-12-18T01:52:51;-3.20;99.90
62339;DHT22;48368;53.406;6.214;2022-12-18T01:55:20;-3.40;99.90
62339;DHT22;48368;53.406;6.214;2022-12-18T01:57:48;-3.40;99.90
62339;DHT22;48368;53.406;6.214;2022-12-18T02:00:17;-3.30;99.90
62339;DHT22;48368;53.406;6.214;2022-12-18T02:02:44;-3.50;99.90
62339;DHT22;48368;53.406;6.214;2022-12-18T02:05:13;-3.30;99.90
62339;DHT22;48368;53.406;6.214;2022-12-18T02:08:07;-3.40;99.90
62339;DHT22;48368;53.406;6.214;2022-12-18T02:11:09;-3.50;99.90
62339;DHT22;48368;53.406;6.214;2022-12-18T02:16:40;-3.40;99.90
62339;DHT22;48368;53.406;6.214;2022-12-18T02:27:35;-3.60;99.90
62339;DHT22;48368;53.406;6.214;2022-12-18T02:30:03;-3.50;99.90
62339;DHT22;48368;53.406;6.214;2022-12-18T02:32:36;-3.50;99.90
62339;DHT22;48368;53.406;6.214;2022-12-18T02:35:06;-3.50;99.90
62339;DHT22;48368;53.406;6.214;2022-12-18T02:37:33;-3.60;99.90
62339;DHT22;48368;53.406;6.214;2022-12-18T02:40:00;-3.50;99.90
62339;DHT22;48368;53.406;6.214;2022-12-18T02:42:28;-3.60;99.90
62339;DHT22;48368;53.406;6.214;2022-12-18T02:44:56;-3.60;99.90
62339;DHT22;48368;53.406;6.214;2022-12-18T02:47:30;-3.60;99.90
62339;DHT22;48368;53.406;6.214;2022-12-18T02:52:49;-3.70;99.90
62339;DHT22;48368;53.406;6.214;2022-12-18T02:55:34;-3.60;99.90
62339;DHT22;48368;53.406;6.214;2022-12-18T02:58:25;-3.80;99.90
62339;DHT22;48368;53.406;6.214;2022-12-18T03:01:11;-3.60;99.90
62339;DHT22;48368;53.406;6.214;2022-12-18T03:03:51;-3.80;99.90
62339;DHT22;48368;53.406;6.214;2022-12-18T03:06:37;-3.70;99.90
62339;DHT22;48368;53.406;6.214;2022-12-18T03:09:08;-3.80;99.90
62339;DHT22;48368;53.406;6.214;2022-12-18T03:11:37;-3.80;99.90
62339;DHT22;48368;53.406;6.214;2022-12-18T03:14:28;-3.70;99.90
62339;DHT22;48368;53.406;6.214;2022-12-18T03:17:00;-3.80;99.90
62339;DHT22;48368;53.406;6.214;2022-12-18T03:19:28;-3.80;99.90
62339;DHT22;48368;53.406;6.214;2022-12-18T03:21:57;-3.80;99.90
62339;DHT22;48368;53.406;6.214;2022-12-18T03:24:24;-3.80;99.90
62339;DHT22;48368;53.406;6.214;2022-12-18T03:26:54;-3.80;99.90
62339;DHT22;48368;53.406;6.214;2022-12-18T03:29:26;-3.80;99.90
62339;DHT22;48368;53.406;6.214;2022-12-18T03:34:58;-3.80;99.90
62339;DHT22;48368;53.406;6.214;2022-12-18T03:37:25;-3.80;99.90
62339;DHT22;48368;53.406;6.214;2022-12-18T03:39:50;-3.90;99.90
62339;DHT22;48368;53.406;6.214;2022-12-18T03:45:08;-3.90;99.90
62339;DHT22;48368;53.406;6.214;2022-12-18T03:47:40;-3.90;99.90
62339;DHT22;48368;53.406;6.214;2022-12-18T03:50:33;-3.90;99.90
62339;DHT22;48368;53.406;6.214;2022-12-18T03:55:52;-3.90;99.90
62339;DHT22;48368;53.406;6.214;2022-12-18T03:58:22;-4.00;99.90
62339;DHT22;48368;53.406;6.214;2022-12-18T04:00:52;-4.00;99.90
62339;DHT22;48368;53.406;6.214;2022-12-18T04:03:19;-4.00;99.90
62339;DHT22;48368;53.406;6.214;2022-12-18T04:05:47;-4.10;99.90
62339;DHT22;48368;53.406;6.214;2022-12-18T04:08:18;-4.00;99.90
62339;DHT22;48368;53.406;6.214;2022-12-18T04:10:45;-4.10;99.90
62339;DHT22;48368;53.406;6.214;2022-12-18T04:13:10;-4.10;99.90
62339;DHT22;48368;53.406;6.214;2022-12-18T04:15:36;-4.10;99.90
62339;DHT22;48368;53.406;6.214;2022-12-18T04:18:03;-4.10;99.90
62339;DHT22;48368;53.406;6.214;2022-12-18T04:20:29;-4.20;99.90
62339;DHT22;48368;53.406;6.214;2022-12-18T04:22:54;-4.20;99.90
62339;DHT22;48368;53.406;6.214;2022-12-18T04:25:20;-4.30;99.90
62339;DHT22;48368;53.406;6.214;2022-12-18T04:27:45;-4.40;99.90
62339;DHT22;48368;53.406;6.214;2022-12-18T04:30:11;-4.30;99.90
62339;DHT22;48368;53.406;6.214;2022-12-18T04:32:37;-4.30;99.90
62339;DHT22;48368;53.406;6.214;2022-12-18T04:35:03;-4.40;99.90
62339;DHT22;48368;53.406;6.214;2022-12-18T04:37:31;-4.40;99.90
62339;DHT22;48368;53.406;6.214;2022-12-18T04:39:57;-4.40;99.90
62339;DHT22;48368;53.406;6.214;2022-12-18T04:42:23;-4.40;99.90
62339;DHT22;48368;53.406;6.214;2022-12-18T04:44:49;-4.50;99.90
62339;DHT22;48368;53.406;6.214;2022-12-18T04:47:14;-4.50;99.90
62339;DHT22;48368;53.406;6.214;2022-12-18T04:49:40;-4.40;99.90
62339;DHT22;48368;53.406;6.214;2022-12-18T04:52:06;-4.60;99.90
62339;DHT22;48368;53.406;6.214;2022-12-18T04:54:32;-4.50;99.90
62339;DHT22;48368;53.406;6.214;2022-12-18T04:56:57;-4.40;99.90
62339;DHT22;48368;53.406;6.214;2022-12-18T04:59:23;-4.60;99.90
62339;DHT22;48368;53.406;6.214;2022-12-18T05:01:49;-4.50;99.90
62339;DHT22;48368;53.406;6.214;2022-12-18T05:04:14;-4.50;99.90
62339;DHT22;48368;53.406;6.214;2022-12-18T05:06:40;-4.50;99.90
62339;DHT22;48368;53.406;6.214;2022-12-18T05:09:06;-4.40;99.90
62339;DHT22;48368;53.406;6.214;2022-12-18T05:11:32;-4.50;99.90
62339;DHT22;48368;53.406;6.214;2022-12-18T05:13:57;-4.40;99.90
62339;DHT22;48368;53.406;6.214;2022-12-18T05:16:23;-4.50;99.90
62339;DHT22;48368;53.406;6.214;2022-12-18T05:18:49;-4.40;99.90
62339;DHT22;48368;53.406;6.214;2022-12-18T05:21:14;-4.50;99.90
62339;DHT22;48368;53.406;6.214;2022-12-18T05:23:40;-4.40;99.90
62339;DHT22;48368;53.406;6.214;2022-12-18T05:26:06;-4.50;99.90
62339;DHT22;48368;53.406;6.214;2022-12-18T05:28:34;-4.50;99.90
62339;DHT22;48368;53.406;6.214;2022-12-18T05:31:02;-4.60;99.90
62339;DHT22;48368;53.406;6.214;2022-12-18T05:33:30;-4.60;99.90
62339;DHT22;48368;53.406;6.214;2022-12-18T05:36:01;-4.60;99.90
62339;DHT22;48368;53.406;6.214;2022-12-18T05:38:27;-4.60;99.90
62339;DHT22;48368;53.406;6.214;2022-12-18T05:40:54;-4.50;99.90
62339;DHT22;48368;53.406;6.214;2022-12-18T05:43:20;-4.50;99.90
62339;DHT22;48368;53.406;6.214;2022-12-18T05:45:47;-4.60;99.90
62339;DHT22;48368;53.406;6.214;2022-12-18T05:48:13;-4.50;99.90
62339;DHT22;48368;53.406;6.214;2022-12-18T05:50:41;-4.60;99.90
62339;DHT22;48368;53.406;6.214;2022-12-18T05:53:07;-4.50;99.90
62339;DHT22;48368;53.406;6.214;2022-12-18T05:55:36;-4.50;99.90
62339;DHT22;48368;53.406;6.214;2022-12-18T05:58:07;-4.50;99.90
62339;DHT22;48368;53.406;6.214;2022-12-18T06:00:35;-4.50;99.90
62339;DHT22;48368;53.406;6.214;2022-12-18T06:03:01;-4.50;99.90
62339;DHT22;48368;53.406;6.214;2022-12-18T06:05:42;-4.60;99.90
62339;DHT22;48368;53.406;6.214;2022-12-18T06:08:08;-4.60;99.90
62339;DHT22;48368;53.406;6.214;2022-12-18T06:10:34;-4.60;99.90
62339;DHT22;48368;53.406;6.214;2022-12-18T06:13:00;-4.60;99.90
62339;DHT22;48368;53.406;6.214;2022-12-18T06:15:26;-4.70;99.90
62339;DHT22;48368;53.406;6.214;2022-12-18T06:17:52;-4.70;99.90
62339;DHT22;48368;53.406;6.214;2022-12-18T06:20:17;-4.70;99.90
62339;DHT22;48368;53.406;6.214;2022-12-18T06:22:43;-4.60;99.90
62339;DHT22;48368;53.406;6.214;2022-12-18T06:25:09;-4.80;99.90
62339;DHT22;48368;53.406;6.214;2022-12-18T06:27:34;-4.70;99.90
62339;DHT22;48368;53.406;6.214;2022-12-18T06:30:00;-4.80;99.90
62339;DHT22;48368;53.406;6.214;2022-12-18T06:32:26;-4.70;99.90
62339;DHT22;48368;53.406;6.214;2022-12-18T06:34:52;-4.70;99.90
62339;DHT22;48368;53.406;6.214;2022-12-18T06:37:19;-4.80;99.90
62339;DHT22;48368;53.406;6.214;2022-12-18T06:39:44;-4.80;99.90
62339;DHT22;48368;53.406;6.214;2022-12-18T06:42:10;-4.80;99.90
62339;DHT22;48368;53.406;6.214;2022-12-18T06:44:36;-4.80;99.90
62339;DHT22;48368;53.406;6.214;2022-12-18T06:47:02;-4.70;99.90
62339;DHT22;48368;53.406;6.214;2022-12-18T06:49:27;-4.70;99.90
62339;DHT22;48368;53.406;6.214;2022-12-18T06:51:55;-4.70;99.90
62339;DHT22;48368;53.406;6.214;2022-12-18T06:54:21;-4.70;99.90
62339;DHT22;48368;53.406;6.214;2022-12-18T06:56:47;-4.70;99.90
62339;DHT22;48368;53.406;6.214;2022-12-18T06:59:13;-4.60;99.90
62339;DHT22;48368;53.406;6.214;2022-12-18T07:01:40;-4.70;99.90
62339;DHT22;48368;53.406;6.214;2022-12-18T07:04:05;-4.70;99.90
62339;DHT22;48368;53.406;6.214;2022-12-18T07:06:31;-4.80;99.90
62339;DHT22;48368;53.406;6.214;2022-12-18T07:08:57;-4.80;99.90
62339;DHT22;48368;53.406;6.214;2022-12-18T07:11:23;-4.80;99.90
62339;DHT22;48368;53.406;6.214;2022-12-18T07:13:48;-4.90;99.90
62339;DHT22;48368;53.406;6.214;2022-12-18T07:16:16;-4.90;99.90
62339;DHT22;48368;53.406;6.214;2022-12-18T07:18:42;-4.90;99.90
62339;DHT22;48368;53.406;6.214;2022-12-18T07:21:12;-4.90;99.90
62339;DHT22;48368;53.406;6.214;2022-12-18T07:23:39;-4.90;99.90
62339;DHT22;48368;53.406;6.214;2022-12-18T07:26:10;-4.90;99.90
62339;DHT22;48368;53.406;6.214;2022-12-18T07:28:37;-4.90;99.90
62339;DHT22;48368;53.406;6.214;2022-12-18T07:31:17;-4.90;99.90
62339;DHT22;48368;53.406;6.214;2022-12-18T07:33:43;-5.00;99.90
62339;DHT22;48368;53.406;6.214;2022-12-18T07:36:09;-4.90;99.90
62339;DHT22;48368;53.406;6.214;2022-12-18T07:38:35;-4.90;99.90
62339;DHT22;48368;53.406;6.214;2022-12-18T07:41:03;-4.90;99.90
62339;DHT22;48368;53.406;6.214;2022-12-18T07:43:29;-4.80;99.90
62339;DHT22;48368;53.406;6.214;2022-12-18T07:45:55;-4.90;99.90
62339;DHT22;48368;53.406;6.214;2022-12-18T07:48:20;-4.90;99.90
62339;DHT22;48368;53.406;6.214;2022-12-18T07:50:46;-4.90;99.90
62339;DHT22;48368;53.406;6.214;2022-12-18T07:53:12;-4.90;99.90
62339;DHT22;48368;53.406;6.214;2022-12-18T07:55:37;-4.80;99.90
62339;DHT22;48368;53.406;6.214;2022-12-18T07:58:04;-4.80;99.90
62339;DHT22;48368;53.406;6.214;2022-12-18T08:00:30;-4.80;99.90
62339;DHT22;48368;53.406;6.214;2022-12-18T08:02:57;-4.80;99.90
62339;DHT22;48368;53.406;6.214;2022-12-18T08:05:23;-4.80;99.90
62339;DHT22;48368;53.406;6.214;2022-12-18T08:07:49;-4.80;99.90
62339;DHT22;48368;53.406;6.214;2022-12-18T08:10:15;-4.70;99.90
62339;DHT22;48368;53.406;6.214;2022-12-18T08:12:40;-4.70;99.90
62339;DHT22;48368;53.406;6.214;2022-12-18T08:15:07;-4.70;99.90
62339;DHT22;48368;53.406;6.214;2022-12-18T08:17:33;-4.70;99.90
62339;DHT22;48368;53.406;6.214;2022-12-18T08:19:58;-4.60;99.90
62339;DHT22;48368;53.406;6.214;2022-12-18T08:22:24;-4.60;99.90
62339;DHT22;48368;53.406;6.214;2022-12-18T08:24:50;-4.60;99.90
62339;DHT22;48368;53.406;6.214;2022-12-18T08:27:16;-4.70;99.90
62339;DHT22;48368;53.406;6.214;2022-12-18T08:29:41;-4.60;99.90
62339;DHT22;48368;53.406;6.214;2022-12-18T08:32:07;-4.60;99.90
62339;DHT22;48368;53.406;6.214;2022-12-18T08:34:33;-4.50;99.90
62339;DHT22;48368;53.406;6.214;2022-12-18T08:36:59;-4.50;99.90
62339;DHT22;48368;53.406;6.214;2022-12-18T08:39:27;-4.50;99.90
62339;DHT22;48368;53.406;6.214;2022-12-18T08:41:53;-4.60;99.90
62339;DHT22;48368;53.406;6.214;2022-12-18T08:44:37;-4.50;99.90
62339;DHT22;48368;53.406;6.214;2022-12-18T08:47:04;-4.50;99.90
62339;DHT22;48368;53.406;6.214;2022-12-18T08:49:29;-4.40;99.90
62339;DHT22;48368;53.406;6.214;2022-12-18T08:51:56;-4.40;99.90
62339;DHT22;48368;53.406;6.214;2022-12-18T08:54:26;-4.40;99.90
62339;DHT22;48368;53.406;6.214;2022-12-18T08:56:51;-4.30;99.90
62339;DHT22;48368;53.406;6.214;2022-12-18T08:59:18;-4.40;99.90
62339;DHT22;48368;53.406;6.214;2022-12-18T09:01:44;-4.30;99.90
62339;DHT22;48368;53.406;6.214;2022-12-18T09:04:10;-4.30;99.90
62339;DHT22;48368;53.406;6.214;2022-12-18T09:06:35;-4.20;99.90
62339;DHT22;48368;53.406;6.214;2022-12-18T09:09:02;-4.30;99.90
62339;DHT22;48368;53.406;6.214;2022-12-18T09:11:28;-4.20;99.90
62339;DHT22;48368;53.406;6.214;2022-12-18T09:13:55;-4.20;99.90
62339;DHT22;48368;53.406;6.214;2022-12-18T09:16:22;-4.10;99.90
62339;DHT22;48368;53.406;6.214;2022-12-18T09:18:48;-4.00;99.90
62339;DHT22;48368;53.406;6.214;2022-12-18T09:21:19;-3.90;99.90
62339;DHT22;48368;53.406;6.214;2022-12-18T09:23:53;-3.90;99.90
62339;DHT22;48368;53.406;6.214;2022-12-18T09:26:19;-3.90;99.90
62339;DHT22;48368;53.406;6.214;2022-12-18T09:28:45;-3.80;99.90
62339;DHT22;48368;53.406;6.214;2022-12-18T09:31:12;-3.70;99.90
62339;DHT22;48368;53.406;6.214;2022-12-18T09:33:41;-3.60;99.90
62339;DHT22;48368;53.406;6.214;2022-12-18T09:36:13;-3.60;99.90
62339;DHT22;48368;53.406;6.214;2022-12-18T09:38:39;-3.50;99.90
62339;DHT22;48368;53.406;6.214;2022-12-18T09:44:03;-3.50;99.90
62339;DHT22;48368;53.406;6.214;2022-12-18T09:46:34;-3.40;99.90
62339;DHT22;48368;53.406;6.214;2022-12-18T09:49:05;-3.40;99.90
62339;DHT22;48368;53.406;6.214;2022-12-18T09:51:36;-3.30;99.90
62339;DHT22;48368;53.406;6.214;2022-12-18T09:54:14;-3.40;99.90
62339;DHT22;48368;53.406;6.214;2022-12-18T09:56:42;-3.30;99.90
62339;DHT22;48368;53.406;6.214;2022-12-18T09:59:32;-3.30;99.90
62339;DHT22;48368;53.406;6.214;2022-12-18T10:01:59;-3.30;99.90
62339;DHT22;48368;53.406;6.214;2022-12-18T10:04:25;-3.20;99.90
62339;DHT22;48368;53.406;6.214;2022-12-18T10:07:22;-3.10;99.90
62339;DHT22;48368;53.406;6.214;2022-12-18T10:10:14;-3.00;99.90
62339;DHT22;48368;53.406;6.214;2022-12-18T10:12:55;-2.90;99.90
62339;DHT22;48368;53.406;6.214;2022-12-18T10:15:36;-2.80;99.90
62339;DHT22;48368;53.406;6.214;2022-12-18T10:20:55;-2.70;99.90
62339;DHT22;48368;53.406;6.214;2022-12-18T10:26:17;-2.50;99.90
62339;DHT22;48368;53.406;6.214;2022-12-18T10:28:43;-2.50;99.90
62339;DHT22;48368;53.406;6.214;2022-12-18T10:31:18;-2.50;99.90
62339;DHT22;48368;53.406;6.214;2022-12-18T10:33:45;-2.40;99.90
62339;DHT22;48368;53.406;6.214;2022-12-18T10:36:11;-2.50;99.90
62339;DHT22;48368;53.406;6.214;2022-12-18T10:38:37;-2.50;99.90
62339;DHT22;48368;53.406;6.214;2022-12-18T10:43:38;-2.60;99.90
62339;DHT22;48368;53.406;6.214;2022-12-18T10:48:39;-2.50;99.90
62339;DHT22;48368;53.406;6.214;2022-12-18T10:51:06;-2.50;99.90
62339;DHT22;48368;53.406;6.214;2022-12-18T10:53:35;-2.50;99.90
62339;DHT22;48368;53.406;6.214;2022-12-18T10:56:04;-2.50;99.90
62339;DHT22;48368;53.406;6.214;2022-12-18T10:58:31;-2.50;99.90
62339;DHT22;48368;53.406;6.214;2022-12-18T11:01:15;-2.40;99.90
62339;DHT22;48368;53.406;6.214;2022-12-18T11:06:19;-2.40;99.90
62339;DHT22;48368;53.406;6.214;2022-12-18T11:09:19;-2.40;99.90
62339;DHT22;48368;53.406;6.214;2022-12-18T11:11:53;-2.30;99.90
62339;DHT22;48368;53.406;6.214;2022-12-18T11:14:33;-2.30;99.90
62339;DHT22;48368;53.406;6.214;2022-12-18T11:17:00;-2.20;99.90
62339;DHT22;48368;53.406;6.214;2022-12-18T11:19:35;-2.20;99.90
62339;DHT22;48368;53.406;6.214;2022-12-18T11:22:18;-2.20;99.90
62339;DHT22;48368;53.406;6.214;2022-12-18T11:24:53;-2.20;99.90
62339;DHT22;48368;53.406;6.214;2022-12-18T11:27:19;-2.20;99.90
62339;DHT22;48368;53.406;6.214;2022-12-18T11:29:44;-2.10;99.90
62339;DHT22;48368;53.406;6.214;2022-12-18T11:34:44;-2.00;99.90
62339;DHT22;48368;53.406;6.214;2022-12-18T11:37:12;-1.90;99.90
62339;DHT22;48368;53.406;6.214;2022-12-18T11:39:49;-1.90;99.90
62339;DHT22;48368;53.406;6.214;2022-12-18T11:45:00;-1.80;99.90
62339;DHT22;48368;53.406;6.214;2022-12-18T11:47:29;-1.80;99.90
62339;DHT22;48368;53.406;6.214;2022-12-18T11:50:00;-1.70;99.90
62339;DHT22;48368;53.406;6.214;2022-12-18T11:52:52;-1.80;99.90
62339;DHT22;48368;53.406;6.214;2022-12-18T12:15:48;-1.70;99.90
62339;DHT22;48368;53.406;6.214;2022-12-18T12:21:33;-1.70;99.90
62339;DHT22;48368;53.406;6.214;2022-12-18T12:29:35;-1.60;99.90
62339;DHT22;48368;53.406;6.214;2022-12-18T12:32:20;-1.60;99.90
62339;DHT22;48368;53.406;6.214;2022-12-18T12:37:53;-1.60;99.90
62339;DHT22;48368;53.406;6.214;2022-12-18T12:40:26;-1.60;99.90
62339;DHT22;48368;53.406;6.214;2022-12-18T12:43:02;-1.50;99.90
62339;DHT22;48368;53.406;6.214;2022-12-18T12:48:27;-1.50;99.90
62339;DHT22;48368;53.406;6.214;2022-12-18T12:50:54;-1.50;99.90
62339;DHT22;48368;53.406;6.214;2022-12-18T12:53:26;-1.50;99.90
62339;DHT22;48368;53.406;6.214;2022-12-18T12:55:54;-1.40;99.90
62339;DHT22;48368;53.406;6.214;2022-12-18T12:58:33;-1.40;99.90
62339;DHT22;48368;53.406;6.214;2022-12-18T13:09:16;-1.30;99.90
62339;DHT22;48368;53.406;6.214;2022-12-18T13:11:44;-1.20;99.90
62339;DHT22;48368;53.406;6.214;2022-12-18T13:14:39;-1.20;99.90
62339;DHT22;48368;53.406;6.214;2022-12-18T13:19:44;-1.20;99.90
62339;DHT22;48368;53.406;6.214;2022-12-18T13:22:31;-1.10;99.90
62339;DHT22;48368;53.406;6.214;2022-12-18T13:25:37;-1.10;99.90
62339;DHT22;48368;53.406;6.214;2022-12-18T13:28:12;-1.10;99.90
62339;DHT22;48368;53.406;6.214;2022-12-18T13:30:52;-1.10;99.90
62339;DHT22;48368;53.406;6.214;2022-12-18T13:38:44;-1.10;99.90
62339;DHT22;48368;53.406;6.214;2022-12-18T13:46:30;-1.10;99.90
62339;DHT22;48368;53.406;6.214;2022-12-18T13:49:03;-1.10;99.90
62339;DHT22;48368;53.406;6.214;2022-12-18T13:51:34;-1.10;99.90
62339;DHT22;48368;53.406;6.214;2022-12-18T13:54:22;-1.00;99.90
62339;DHT22;48368;53.406;6.214;2022-12-18T13:56:50;-1.00;99.90
62339;DHT22;48368;53.406;6.214;2022-12-18T13:59:35;-1.10;99.90
62339;DHT22;48368;53.406;6.214;2022-12-18T14:02:15;-1.10;99.90
62339;DHT22;48368;53.406;6.214;2022-12-18T14:04:40;-1.10;99.90
62339;DHT22;48368;53.406;6.214;2022-12-18T14:07:18;-1.10;99.90
62339;DHT22;48368;53.406;6.214;2022-12-18T14:09:53;-1.10;99.90
62339;DHT22;48368;53.406;6.214;2022-12-18T14:12:33;-1.10;99.90
62339;DHT22;48368;53.406;6.214;2022-12-18T14:17:52;-1.00;99.90
62339;DHT22;48368;53.406;6.214;2022-12-18T14:20:18;-1.00;99.90
62339;DHT22;48368;53.406;6.214;2022-12-18T14:22:46;-1.00;99.90
62339;DHT22;48368;53.406;6.214;2022-12-18T14:25:23;-1.00;99.90
62339;DHT22;48368;53.406;6.214;2022-12-18T14:30:37;-1.10;99.90
62339;DHT22;48368;53.406;6.214;2022-12-18T14:33:10;-1.10;99.90
62339;DHT22;48368;53.406;6.214;2022-12-18T14:35:51;-1.00;99.90
62339;DHT22;48368;53.406;6.214;2022-12-18T14:41:09;-1.00;99.90
62339;DHT22;48368;53.406;6.214;2022-12-18T14:43:37;-1.00;99.90
62339;DHT22;48368;53.406;6.214;2022-12-18T14:46:05;-1.00;99.90
62339;DHT22;48368;53.406;6.214;2022-12-18T14:48:35;-1.00;99.90
62339;DHT22;48368;53.406;6.214;2022-12-18T14:51:22;-1.00;99.90
62339;DHT22;48368;53.406;6.214;2022-12-18T14:53:53;-1.00;99.90
62339;DHT22;48368;53.406;6.214;2022-12-18T14:56:34;-1.00;99.90
62339;DHT22;48368;53.406;6.214;2022-12-18T14:59:05;-1.10;99.90
62339;DHT22;48368;53.406;6.214;2022-12-18T15:01:36;-1.10;99.90
62339;DHT22;48368;53.406;6.214;2022-12-18T15:04:04;-1.10;99.90
62339;DHT22;48368;53.406;6.214;2022-12-18T15:06:33;-1.10;99.90
62339;DHT22;48368;53.406;6.214;2022-12-18T15:09:05;-1.10;99.90
62339;DHT22;48368;53.406;6.214;2022-12-18T15:11:47;-1.10;99.90
62339;DHT22;48368;53.406;6.214;2022-12-18T15:17:18;-1.10;99.90
62339;DHT22;48368;53.406;6.214;2022-12-18T15:19:46;-1.10;99.90
62339;DHT22;48368;53.406;6.214;2022-12-18T15:22:35;-1.10;99.90
62339;DHT22;48368;53.406;6.214;2022-12-18T15:25:02;-1.10;99.90
62339;DHT22;48368;53.406;6.214;2022-12-18T15:27:35;-1.10;99.90
62339;DHT22;48368;53.406;6.214;2022-12-18T15:32:36;-1.10;99.90
62339;DHT22;48368;53.406;6.214;2022-12-18T15:35:16;-1.10;99.90
62339;DHT22;48368;53.406;6.214;2022-12-18T15:37:42;-1.10;99.90
62339;DHT22;48368;53.406;6.214;2022-12-18T15:40:13;-1.10;99.90
62339;DHT22;48368;53.406;6.214;2022-12-18T15:42:39;-1.10;99.90
62339;DHT22;48368;53.406;6.214;2022-12-18T15:45:23;-1.10;99.90
62339;DHT22;48368;53.406;6.214;2022-12-18T15:47:48;-1.20;99.90
62339;DHT22;48368;53.406;6.214;2022-12-18T15:50:14;-1.10;99.90
62339;DHT22;48368;53.406;6.214;2022-12-18T15:52:43;-1.20;99.90
62339;DHT22;48368;53.406;6.214;2022-12-18T15:55:14;-1.20;99.90
62339;DHT22;48368;53.406;6.214;2022-12-18T15:57:58;-1.20;99.90
62339;DHT22;48368;53.406;6.214;2022-12-18T16:00:25;-1.20;99.90
62339;DHT22;48368;53.406;6.214;2022-12-18T16:02:50;-1.20;99.90
62339;DHT22;48368;53.406;6.214;2022-12-18T16:05:18;-1.30;99.90
62339;DHT22;48368;53.406;6.214;2022-12-18T16:07:44;-1.30;99.90
62339;DHT22;48368;53.406;6.214;2022-12-18T16:10:10;-1.30;99.90
62339;DHT22;48368;53.406;6.214;2022-12-18T16:12:36;-1.30;99.90
62339;DHT22;48368;53.406;6.214;2022-12-18T16:15:04;-1.30;99.90
62339;DHT22;48368;53.406;6.214;2022-12-18T16:17:29;-1.30;99.90
62339;DHT22;48368;53.406;6.214;2022-12-18T16:19:55;-1.40;99.90
62339;DHT22;48368;53.406;6.214;2022-12-18T16:22:26;-1.30;99.90
62339;DHT22;48368;53.406;6.214;2022-12-18T16:24:59;-1.40;99.90
62339;DHT22;48368;53.406;6.214;2022-12-18T16:27:31;-1.50;99.90
62339;DHT22;48368;53.406;6.214;2022-12-18T16:29:57;-1.40;99.90
62339;DHT22;48368;53.406;6.214;2022-12-18T16:32:22;-1.40;99.90
62339;DHT22;48368;53.406;6.214;2022-12-18T16:34:48;-1.40;99.90
62339;DHT22;48368;53.406;6.214;2022-12-18T16:37:15;-1.40;99.90
62339;DHT22;48368;53.406;6.214;2022-12-18T16:39:41;-1.40;99.90
62339;DHT22;48368;53.406;6.214;2022-12-18T16:42:17;-1.40;99.90
62339;DHT22;48368;53.406;6.214;2022-12-18T16:44:45;-1.40;99.90
62339;DHT22;48368;53.406;6.214;2022-12-18T16:47:18;-1.40;99.90
62339;DHT22;48368;53.406;6.214;2022-12-18T16:49:44;-1.40;99.90
62339;DHT22;48368;53.406;6.214;2022-12-18T16:52:18;-1.40;99.90
62339;DHT22;48368;53.406;6.214;2022-12-18T16:54:44;-1.40;99.90
62339;DHT22;48368;53.406;6.214;2022-12-18T16:57:13;-1.30;99.90
62339;DHT22;48368;53.406;6.214;2022-12-18T16:59:39;-1.30;99.90
62339;DHT22;48368;53.406;6.214;2022-12-18T17:02:06;-1.30;99.90
62339;DHT22;48368;53.406;6.214;2022-12-18T17:04:35;-1.30;99.90
62339;DHT22;48368;53.406;6.214;2022-12-18T17:07:01;-1.20;99.90
62339;DHT22;48368;53.406;6.214;2022-12-18T17:09:29;-1.20;99.90
62339;DHT22;48368;53.406;6.214;2022-12-18T17:11:54;-1.20;99.90
62339;DHT22;48368;53.406;6.214;2022-12-18T17:14:21;-1.20;99.90
62339;DHT22;48368;53.406;6.214;2022-12-18T17:16:48;-1.20;99.90
62339;DHT22;48368;53.406;6.214;2022-12-18T17:19:14;-1.10;99.90
62339;DHT22;48368;53.406;6.214;2022-12-18T17:21:42;-1.20;99.90
62339;DHT22;48368;53.406;6.214;2022-12-18T17:24:08;-1.20;99.90
62339;DHT22;48368;53.406;6.214;2022-12-18T17:26:33;-1.20;99.90
62339;DHT22;48368;53.406;6.214;2022-12-18T17:28:59;-1.20;99.90
62339;DHT22;48368;53.406;6.214;2022-12-18T17:31:27;-1.20;99.90
62339;DHT22;48368;53.406;6.214;2022-12-18T17:33:53;-1.20;99.90
62339;DHT22;48368;53.406;6.214;2022-12-18T17:36:19;-1.20;99.90
62339;DHT22;48368;53.406;6.214;2022-12-18T17:39:15;-1.20;99.90
62339;DHT22;48368;53.406;6.214;2022-12-18T17:41:41;-1.20;99.90
62339;DHT22;48368;53.406;6.214;2022-12-18T17:44:08;-1.20;99.90